Time;durP1;ratioP1;P1;durP2;ratioP2;P2;SDS_P1;SDS_P2;PMS_P1;PMS_P2;Temp;Humidity;BMP_temperature;BMP_pressure;BME280_temperature;BME280_humidity;BME280_pressure;Samples;Min_cycle;Max_cycle;Signal;HPM_P1;HPM_P2
2023/08/06 00:02:37;;;;;;;4.72;1.55;;;;;14.40;99729.00;;;;10258144;28;20499;-79
2023/08/06 00:07:39;;;;;;;2.30;1.30;;;;;14.40;99736.00;;;;10239287;28;20230;-78
2023/08/06 00:12:40;;;;;;;4.50;1.70;;;;;14.40;99735.00;;;;10244049;28;20219;-79
2023/08/06 00:17:41;;;;;;;7.75;1.92;;;;;14.40;99734.00;;;;10259186;28;20576;-78
2023/08/06 00:22:44;;;;;;;8.95;1.80;;;;;14.40;99716.00;;;;10222377;28;21032;-77
2023/08/06 00:27:45;;;;;;;6.53;2.58;;;;;14.50;99712.00;;;;10260763;28;20223;-79
2023/08/06 00:32:47;;;;;;;3.93;2.20;;;;;14.50;99724.00;;;;10261337;28;20211;-78
2023/08/06 00:37:48;;;;;;;6.60;2.33;;;;;14.50;99713.00;;;;10242183;28;20509;-78
2023/08/06 00:42:50;;;;;;;5.57;2.50;;;;;14.50;99711.00;;;;10242438;28;21532;-79
2023/08/06 00:47:52;;;;;;;4.20;2.63;;;;;14.50;99706.00;;;;10225685;28;20232;-79
2023/08/06 00:52:54;;;;;;;6.60;3.58;;;;;14.50;99712.00;;;;10241245;28;20215;-79
2023/08/06 00:57:56;;;;;;;7.60;4.10;;;;;14.50;99712.00;;;;10241486;28;20265;-78
2023/08/06 01:02:57;;;;;;;9.02;4.22;;;;;14.60;99714.00;;;;10258275;28;20200;-79
2023/08/06 01:08:16;;;;;;;7.05;4.20;;;;;14.60;99715.00;;;;10260579;28;20234;-79
2023/08/06 01:13:36;;;;;;;14.20;5.38;;;;;14.60;99720.00;;;;10241674;28;20207;-79
2023/08/06 01:18:39;;;;;;;16.83;6.75;;;;;14.60;99705.00;;;;10226894;28;20825;-79
2023/08/06 01:23:41;;;;;;;15.52;6.93;;;;;14.60;99711.00;;;;10241797;28;20215;-79
2023/08/06 01:28:52;;;;;;;18.08;7.70;;;;;14.70;99707.00;;;;10223257;28;20235;-79
2023/08/06 01:33:56;;;;;;;15.52;7.45;;;;;14.70;99715.00;;;;10256344;28;20528;-78
2023/08/06 01:38:57;;;;;;;18.40;7.78;;;;;14.80;99703.00;;;;10258472;28;20220;-78
2023/08/06 01:44:00;;;;;;;19.58;8.75;;;;;14.70;99706.00;;;;10238717;28;20216;-78
2023/08/06 01:49:01;;;;;;;14.77;8.38;;;;;14.70;99710.00;;;;10241762;28;20234;-79
2023/08/06 01:54:03;;;;;;;21.83;9.48;;;;;14.60;99706.00;;;;10221952;28;20625;-78
2023/08/06 01:59:04;;;;;;;18.17;9.65;;;;;14.60;99720.00;;;;10257801;28;20199;-78
2023/08/06 02:04:06;;;;;;;16.55;9.35;;;;;14.60;99717.00;;;;10239893;28;20215;-79
2023/08/06 02:09:07;;;;;;;15.98;10.05;;;;;14.60;99725.00;;;;10239665;28;21686;-78
2023/08/06 02:14:10;;;;;;;12.85;8.68;;;;;14.60;99723.00;;;;10236710;28;20340;-79
2023/08/06 02:19:12;;;;;;;20.60;9.73;;;;;14.50;99719.00;;;;10242507;28;21129;-78
2023/08/06 02:24:13;;;;;;;28.10;9.73;;;;;14.40;99727.00;;;;10238811;28;21272;-78
2023/08/06 02:29:14;;;;;;;20.38;10.07;;;;;14.30;99727.00;;;;10256455;28;20774;-77
2023/08/06 02:34:18;;;;;;;24.92;9.65;;;;;14.30;99726.00;;;;10223769;28;20212;-78
2023/08/06 02:39:21;;;;;;;18.35;10.00;;;;;14.30;99734.00;;;;10241584;28;21109;-79
2023/08/06 02:44:22;;;;;;;15.85;8.77;;;;;14.30;99738.00;;;;10240884;28;20706;-78
2023/08/06 02:49:24;;;;;;;23.35;9.05;;;;;14.40;99736.00;;;;10245259;28;20203;-79
2023/08/06 02:54:25;;;;;;;17.00;8.45;;;;;14.40;99740.00;;;;10264851;28;20215;-78
2023/08/06 02:59:27;;;;;;;25.27;9.85;;;;;14.40;99745.00;;;;10263388;28;20226;-78
2023/08/06 03:04:51;;;;;;;18.52;8.25;;;;;14.40;99739.00;;;;10235419;28;20234;-79
2023/08/06 03:09:55;;;;;;;16.17;8.07;;;;;14.40;99748.00;;;;10243281;28;20624;-78
2023/08/06 03:14:57;;;;;;;15.73;8.73;;;;;14.40;99746.00;;;;10242660;28;20466;-78
2023/08/06 03:19:58;;;;;;;16.27;9.70;;;;;14.40;99745.00;;;;10242209;28;20207;-79
2023/08/06 03:25:00;;;;;;;21.98;11.32;;;;;14.40;99754.00;;;;10242091;28;20216;-78
2023/08/06 03:30:03;;;;;;;25.02;12.60;;;;;14.40;99761.00;;;;10243420;28;20238;-79
2023/08/06 03:35:05;;;;;;;31.20;15.45;;;;;14.40;99767.00;;;;10245787;28;20269;-78
2023/08/06 03:40:07;;;;;;;28.38;14.85;;;;;14.40;99764.00;;;;10243806;28;20898;-79
2023/08/06 03:45:09;;;;;;;27.35;15.48;;;;;14.40;99779.00;;;;10259883;28;20238;-79
2023/08/06 03:50:13;;;;;;;26.58;14.75;;;;;14.40;99781.00;;;;10226547;28;21398;-78
2023/08/06 03:55:14;;;;;;;29.00;14.52;;;;;14.50;99792.00;;;;10240254;28;21747;-79
2023/08/06 04:00:16;;;;;;;29.25;12.98;;;;;14.50;99795.00;;;;10242670;28;20211;-78
2023/08/06 04:05:21;;;;;;;29.10;13.82;;;;;14.50;99800.00;;;;10260042;28;20273;-79
2023/08/06 04:10:23;;;;;;;15.00;9.23;;;;;14.50;99812.00;;;;10260111;28;20257;-78
2023/08/06 04:15:25;;;;;;;13.27;7.60;;;;;14.50;99820.00;;;;10259125;28;20333;-79
2023/08/06 04:20:26;;;;;;;6.22;4.75;;;;;14.50;99839.00;;;;10243832;28;20215;-79
2023/08/06 04:25:27;;;;;;;3.72;1.95;;;;;14.40;99847.00;;;;10227502;28;20260;-80
2023/08/06 04:30:29;;;;;;;2.47;1.00;;;;;14.20;99873.00;;;;10191340;28;20219;-81
2023/08/06 04:35:30;;;;;;;1.67;0.85;;;;;14.10;99893.00;;;;10223958;28;20286;-80
2023/08/06 04:40:36;;;;;;;3.90;1.10;;;;;14.00;99881.00;;;;10225868;28;20211;-80
2023/08/06 04:45:37;;;;;;;2.97;2.22;;;;;13.70;99895.00;;;;10240010;28;20227;-80
2023/08/06 04:50:43;;;;;;;4.38;2.08;;;;;13.50;99925.00;;;;10224047;28;20298;-80
2023/08/06 04:55:45;;;;;;;4.95;2.97;;;;;13.30;99931.00;;;;10223735;28;21006;-81
2023/08/06 05:00:46;;;;;;;6.43;3.83;;;;;13.10;99967.00;;;;10206316;28;20207;-80
2023/08/06 05:05:48;;;;;;;7.73;3.97;;;;;13.00;99989.00;;;;10241053;28;20702;-80
2023/08/06 05:10:49;;;;;;;5.50;4.30;;;;;13.00;100006.00;;;;10240295;28;20253;-79
2023/08/06 05:15:50;;;;;;;8.73;5.30;;;;;13.00;100016.00;;;;10210257;28;20211;-80
2023/08/06 05:20:52;;;;;;;8.23;4.47;;;;;13.10;100026.00;;;;10221353;28;20246;-80
2023/08/06 05:25:53;;;;;;;8.13;4.27;;;;;13.20;100042.00;;;;10224081;28;20256;-79
2023/08/06 05:30:54;;;;;;;5.13;3.03;;;;;13.30;100053.00;;;;10223707;28;20350;-80
2023/08/06 05:35:56;;;;;;;7.87;3.73;;;;;13.30;100076.00;;;;10203494;28;21697;-80
2023/08/06 05:40:57;;;;;;;8.32;3.28;;;;;13.40;100085.00;;;;10221675;28;20231;-79
2023/08/06 05:45:58;;;;;;;6.97;3.10;;;;;13.40;100103.00;;;;10252526;28;20326;-80
2023/08/06 05:51:00;;;;;;;6.40;3.13;;;;;13.40;100114.00;;;;10252056;28;21340;-80
2023/08/06 05:56:01;;;;;;;8.23;3.67;;;;;13.50;100113.00;;;;10236681;28;20283;-79
2023/08/06 06:01:03;;;;;;;8.60;3.27;;;;;13.50;100119.00;;;;10219602;28;20207;-79
2023/08/06 06:06:04;;;;;;;9.93;3.27;;;;;13.60;100136.00;;;;10236656;28;20230;-79
2023/08/06 06:11:05;;;;;;;12.55;3.67;;;;;13.60;100147.00;;;;10232529;28;20291;-80
2023/08/06 06:16:07;;;;;;;11.38;3.50;;;;;13.70;100168.00;;;;10220031;28;20215;-80
2023/08/06 06:21:10;;;;;;;7.15;3.38;;;;;13.80;100165.00;;;;10241873;28;20216;-80
2023/08/06 06:26:12;;;;;;;7.93;3.58;;;;;13.90;100180.00;;;;10255024;28;21037;-80
2023/08/06 06:31:14;;;;;;;10.50;3.63;;;;;14.00;100186.00;;;;10244258;28;20242;-79
2023/08/06 06:36:15;;;;;;;9.27;3.60;;;;;14.10;100207.00;;;;10241510;28;20863;-80
2023/08/06 06:41:17;;;;;;;10.05;4.57;;;;;14.10;100215.00;;;;10241360;28;21219;-79
2023/08/06 06:46:18;;;;;;;9.73;4.88;;;;;14.10;100219.00;;;;10238648;28;20486;-79
2023/08/06 06:51:19;;;;;;;10.30;4.15;;;;;14.20;100224.00;;;;10241436;28;20211;-79
2023/08/06 06:56:20;;;;;;;15.52;5.28;;;;;14.30;100237.00;;;;10239618;28;20456;-79
2023/08/06 07:01:22;;;;;;;11.20;4.63;;;;;14.40;100241.00;;;;10240365;28;20207;-79
2023/08/06 07:06:24;;;;;;;8.57;3.72;;;;;14.50;100247.00;;;;10227737;28;20694;-80
2023/08/06 07:11:25;;;;;;;13.32;4.45;;;;;14.50;100254.00;;;;10244515;28;20218;-80
2023/08/06 07:16:26;;;;;;;9.63;3.58;;;;;14.60;100264.00;;;;10226136;28;20357;-80
2023/08/06 07:21:28;;;;;;;7.00;3.50;;;;;14.80;100272.00;;;;10229284;28;20215;-79
2023/08/06 07:26:29;;;;;;;11.80;3.50;;;;;14.90;100272.00;;;;10244985;28;20336;-81
2023/08/06 07:31:30;;;;;;;12.70;3.35;;;;;15.10;100272.00;;;;10261826;28;20825;-80
2023/08/06 07:36:32;;;;;;;14.20;2.83;;;;;14.90;100285.00;;;;10243755;28;20211;-80
2023/08/06 07:41:35;;;;;;;13.25;2.20;;;;;14.30;100307.00;;;;10243930;28;21464;-81
2023/08/06 07:46:36;;;;;;;11.88;2.10;;;;;14.30;100299.00;;;;10225311;28;20223;-80
2023/08/06 07:51:38;;;;;;;9.98;1.55;;;;;14.80;100303.00;;;;10259506;28;20247;-80
2023/08/06 07:56:39;;;;;;;11.88;2.13;;;;;15.20;100291.00;;;;10225834;28;20207;-81
2023/08/06 08:01:41;;;;;;;13.27;2.53;;;;;15.20;100297.00;;;;10259154;28;20203;-80
2023/08/06 08:06:42;;;;;;;9.73;2.13;;;;;15.50;100305.00;;;;10226331;28;20227;-80
2023/08/06 08:11:44;;;;;;;16.35;3.38;;;;;15.80;100308.00;;;;10244615;28;20262;-81
2023/08/06 08:16:46;;;;;;;14.00;2.65;;;;;15.90;100308.00;;;;10258509;28;20218;-81
2023/08/06 08:21:48;;;;;;;9.60;2.28;;;;;16.00;100320.00;;;;10227464;28;20211;-80
2023/08/06 08:26:53;;;;;;;12.38;2.40;;;;;15.20;100315.00;;;;10243543;28;20936;-80
2023/08/06 08:31:54;;;;;;;8.88;1.95;;;;;14.70;100344.00;;;;10241578;28;20207;-79
2023/08/06 08:36:56;;;;;;;10.73;1.95;;;;;15.50;100318.00;;;;10258260;28;20708;-79
2023/08/06 08:41:58;;;;;;;10.38;2.10;;;;;16.00;100338.00;;;;10220702;28;20207;-80
2023/08/06 08:47:00;;;;;;;10.55;2.17;;;;;15.80;100335.00;;;;10259522;28;20238;-80
2023/08/06 08:52:02;;;;;;;7.20;1.90;;;;;16.00;100345.00;;;;10257003;28;20319;-81
2023/08/06 08:57:04;;;;;;;19.20;2.55;;;;;16.50;100331.00;;;;10256536;28;20219;-81
2023/08/06 09:02:09;;;;;;;11.15;2.20;;;;;16.30;100332.00;;;;10258524;28;20306;-79
2023/08/06 09:07:14;;;;;;;8.82;2.20;;;;;16.20;100348.00;;;;10241512;28;20267;-81
2023/08/06 09:12:16;;;;;;;10.55;2.42;;;;;15.70;100349.00;;;;10258529;28;20650;-80
2023/08/06 09:17:19;;;;;;;8.30;2.10;;;;;15.20;100372.00;;;;10256249;28;20698;-81
2023/08/06 09:22:21;;;;;;;10.75;2.65;;;;;14.80;100383.00;;;;10256377;28;20426;-80
2023/08/06 09:27:22;;;;;;;13.73;2.35;;;;;14.80;100384.00;;;;10223657;28;20281;-80
2023/08/06 09:32:24;;;;;;;13.85;2.60;;;;;14.70;100398.00;;;;10238280;28;20230;-80
2023/08/06 09:37:35;;;;;;;11.60;2.35;;;;;14.60;100397.00;;;;10240154;28;20919;-79
2023/08/06 09:42:36;;;;;;;7.88;1.83;;;;;14.60;100409.00;;;;10236336;28;20815;-80
2023/08/06 09:47:38;;;;;;;5.93;2.10;;;;;14.50;100406.00;;;;10219453;28;20230;-79
2023/08/06 09:52:40;;;;;;;9.13;2.28;;;;;14.40;100418.00;;;;10237178;28;20272;-80
2023/08/06 09:57:42;;;;;;;10.35;2.47;;;;;14.60;100417.00;;;;10229405;28;20302;-79
2023/08/06 10:02:45;;;;;;;12.18;3.20;;;;;14.50;100413.00;;;;10196727;28;20218;-80
2023/08/06 10:07:47;;;;;;;10.88;3.45;;;;;14.70;100424.00;;;;10240517;28;20261;-80
2023/08/06 10:12:51;;;;;;;9.82;2.50;;;;;15.00;100426.00;;;;10263434;28;20597;-80
2023/08/06 10:17:56;;;;;;;9.07;2.80;;;;;15.20;100442.00;;;;10242662;28;20221;-79
2023/08/06 10:23:08;;;;;;;11.07;2.55;;;;;14.90;100445.00;;;;10261103;28;20203;-80
2023/08/06 10:28:17;;;;;;;9.45;2.08;;;;;14.80;100457.00;;;;10259479;28;20223;-78
2023/08/06 10:33:20;;;;;;;13.93;2.65;;;;;14.60;100457.00;;;;10227602;28;20354;-79
2023/08/06 10:38:33;;;;;;;10.15;2.67;;;;;14.70;100470.00;;;;10242779;28;20310;-80
2023/08/06 10:43:37;;;;;;;8.25;2.20;;;;;14.80;100463.00;;;;10229259;28;20217;-80
2023/08/06 10:48:41;;;;;;;6.43;1.92;;;;;15.00;100489.00;;;;10246509;28;21336;-80
2023/08/06 10:53:44;;;;;;;10.02;2.33;;;;;15.70;100468.00;;;;10261171;28;21545;-80
2023/08/06 10:58:46;;;;;;;7.53;1.90;;;;;15.30;100483.00;;;;10244054;28;20479;-80
2023/08/06 11:03:50;;;;;;;10.07;2.53;;;;;15.00;100494.00;;;;10246939;28;20909;-81
2023/08/06 11:08:55;;;;;;;6.43;2.15;;;;;15.50;100506.00;;;;10244479;28;21369;-80
2023/08/06 11:13:56;;;;;;;10.65;2.78;;;;;15.70;100505.00;;;;10264850;28;20214;-80
2023/08/06 11:18:59;;;;;;;6.03;2.00;;;;;15.90;100507.00;;;;10244797;28;20211;-82
2023/08/06 11:24:01;;;;;;;8.55;2.88;;;;;16.40;100501.00;;;;10232314;28;20401;-80
2023/08/06 11:29:05;;;;;;;9.63;2.40;;;;;16.60;100515.00;;;;10261171;28;20273;-82
2023/08/06 11:34:07;;;;;;;10.27;2.13;;;;;16.90;100478.00;;;;10243912;28;20212;-79
2023/08/06 11:39:09;;;;;;;6.88;2.10;;;;;16.30;100525.00;;;;10250066;28;20221;-81
2023/08/06 11:44:12;;;;;;;7.75;2.45;;;;;15.10;100545.00;;;;10245225;28;20617;-78
2023/08/06 11:49:14;;;;;;;6.82;2.00;;;;;14.70;100550.00;;;;10240900;28;22067;-79
2023/08/06 11:54:15;;;;;;;8.10;2.30;;;;;14.80;100544.00;;;;10238624;28;20211;-81
2023/08/06 11:59:20;;;;;;;9.32;2.38;;;;;15.50;100549.00;;;;10239074;28;20203;-80
2023/08/06 12:04:21;;;;;;;9.52;2.15;;;;;16.40;100533.00;;;;10210234;28;20222;-79
2023/08/06 12:09:23;;;;;;;8.35;2.10;;;;;16.10;100529.00;;;;10209589;28;20238;-81
2023/08/06 12:14:24;;;;;;;13.60;2.17;;;;;17.10;100530.00;;;;10240807;28;21200;-82
2023/08/06 12:19:26;;;;;;;16.20;2.80;;;;;16.90;100522.00;;;;10241904;28;20273;-80
2023/08/06 12:24:31;;;;;;;8.77;2.50;;;;;16.70;100535.00;;;;10245583;28;20234;-81
2023/08/06 12:29:32;;;;;;;13.30;2.45;;;;;16.60;100545.00;;;;10264498;28;20815;-82
2023/08/06 12:34:34;;;;;;;6.68;2.25;;;;;16.00;100545.00;;;;10246428;28;20207;-81
2023/08/06 12:39:53;;;;;;;8.98;2.00;;;;;15.70;100548.00;;;;10235381;28;20222;-82
2023/08/06 12:44:54;;;;;;;5.22;1.50;;;;;15.50;100542.00;;;;10247714;28;20245;-79
2023/08/06 12:49:56;;;;;;;7.80;1.98;;;;;15.50;100589.00;;;;10245882;28;20227;-80
2023/08/06 12:54:57;;;;;;;6.25;2.63;;;;;15.30;100591.00;;;;10245568;28;21057;-80
2023/08/06 12:59:58;;;;;;;7.93;2.50;;;;;15.00;100599.00;;;;10245195;28;20249;-78
2023/08/06 13:05:03;;;;;;;5.22;1.45;;;;;14.40;100616.00;;;;10244764;28;20210;-80
2023/08/06 13:10:05;;;;;;;7.15;2.10;;;;;14.30;100613.00;;;;10242279;28;20253;-79
2023/08/06 13:15:07;;;;;;;10.35;1.98;;;;;14.30;100618.00;;;;10258495;28;20212;-80
2023/08/06 13:20:08;;;;;;;13.73;2.08;;;;;14.90;100619.00;;;;10243767;28;20215;-81
2023/08/06 13:25:10;;;;;;;15.43;2.40;;;;;14.80;100619.00;;;;10241384;28;20650;-81
2023/08/06 13:30:11;;;;;;;7.68;2.17;;;;;15.10;100618.00;;;;10262921;28;20211;-80
2023/08/06 13:35:13;;;;;;;9.20;2.22;;;;;14.90;100621.00;;;;10257846;28;20928;-79
2023/08/06 13:40:15;;;;;;;4.43;1.45;;;;;14.50;100637.00;;;;10221560;28;20222;-79
2023/08/06 13:45:16;;;;;;;6.07;1.50;;;;;14.40;100639.00;;;;10237269;28;20456;-79
2023/08/06 13:50:19;;;;;;;11.50;2.60;;;;;14.20;100650.00;;;;10255992;28;20361;-80
2023/08/06 13:55:21;;;;;;;6.82;1.80;;;;;14.10;100665.00;;;;10223035;28;21105;-79
2023/08/06 14:00:22;;;;;;;9.20;1.90;;;;;14.10;100664.00;;;;10215700;28;20501;-80
2023/08/06 14:05:24;;;;;;;7.35;1.80;;;;;14.20;100674.00;;;;10236429;28;20548;-80
2023/08/06 14:10:25;;;;;;;6.45;1.60;;;;;14.50;100676.00;;;;10235524;28;20238;-79
2023/08/06 14:15:27;;;;;;;8.32;1.40;;;;;14.60;100682.00;;;;10237549;28;20665;-80
2023/08/06 14:20:28;;;;;;;9.88;1.88;;;;;14.40;100687.00;;;;10220659;28;20219;-79
2023/08/06 14:25:29;;;;;;;10.20;2.33;;;;;14.50;100681.00;;;;10199147;28;21384;-79
2023/08/06 14:30:31;;;;;;;10.88;2.40;;;;;14.70;100708.00;;;;10219428;28;20203;-80
2023/08/06 14:35:32;;;;;;;9.75;2.25;;;;;14.40;100721.00;;;;10238681;28;20608;-80
2023/08/06 14:40:37;;;;;;;14.43;3.60;;;;;14.70;100729.00;;;;10238076;28;20302;-80
2023/08/06 14:45:39;;;;;;;9.80;2.60;;;;;14.40;100734.00;;;;10243585;28;20761;-79
2023/08/06 14:50:41;;;;;;;8.20;2.50;;;;;14.20;100750.00;;;;10225947;28;20822;-80
2023/08/06 14:55:42;;;;;;;17.10;3.42;;;;;13.90;100767.00;;;;10210755;28;20265;-80
2023/08/06 15:00:45;;;;;;;13.25;2.83;;;;;14.00;100766.00;;;;10243635;28;21296;-80
2023/08/06 15:05:48;;;;;;;11.73;2.50;;;;;14.40;100762.00;;;;10245128;28;20220;-80
2023/08/06 15:10:51;;;;;;;12.95;2.85;;;;;15.00;100775.00;;;;10245748;28;20704;-80
2023/08/06 15:15:53;;;;;;;6.25;1.92;;;;;14.80;100776.00;;;;10242296;28;20203;-79
2023/08/06 15:20:54;;;;;;;5.00;1.88;;;;;15.30;100779.00;;;;10260389;28;20206;-80
2023/08/06 15:25:55;;;;;;;6.25;1.25;;;;;15.60;100780.00;;;;10243983;28;20550;-79
2023/08/06 15:30:57;;;;;;;9.48;1.77;;;;;15.70;100787.00;;;;10261262;28;20215;-81
2023/08/06 15:35:58;;;;;;;7.30;1.73;;;;;15.80;100788.00;;;;10232831;28;20244;-81
2023/08/06 15:40:59;;;;;;;5.07;1.73;;;;;15.70;100786.00;;;;10246862;28;20242;-82
2023/08/06 15:46:01;;;;;;;4.55;0.93;;;;;15.60;100795.00;;;;10252232;28;20597;-80
2023/08/06 15:51:03;;;;;;;6.25;1.40;;;;;15.50;100794.00;;;;10255359;28;20246;-82
2023/08/06 15:56:05;;;;;;;5.32;1.63;;;;;15.30;100803.00;;;;10236216;28;20207;-82
2023/08/06 16:01:06;;;;;;;7.72;1.75;;;;;15.90;100813.00;;;;10234536;28;20520;-80
2023/08/06 16:06:08;;;;;;;8.10;2.33;;;;;16.20;100819.00;;;;10250679;28;20412;-82
2023/08/06 16:11:10;;;;;;;5.28;1.80;;;;;16.50;100814.00;;;;10241069;28;20215;-81
2023/08/06 16:16:11;;;;;;;8.38;2.20;;;;;16.20;100825.00;;;;10236005;28;20203;-82
2023/08/06 16:21:12;;;;;;;7.43;2.03;;;;;16.00;100822.00;;;;10266926;28;20819;-81
2023/08/06 16:26:14;;;;;;;8.40;2.60;;;;;15.70;100835.00;;;;10250955;28;20235;-81
2023/08/06 16:31:15;;;;;;;7.38;2.45;;;;;15.50;100834.00;;;;10250972;28;20241;-81
2023/08/06 16:36:17;;;;;;;8.85;1.70;;;;;15.90;100843.00;;;;10233961;28;20472;-80
2023/08/06 16:41:18;;;;;;;6.47;1.90;;;;;16.00;100858.00;;;;10230916;28;20707;-82
2023/08/06 16:46:19;;;;;;;7.95;2.35;;;;;16.10;100868.00;;;;10245323;28;20223;-81
2023/08/06 16:51:21;;;;;;;8.85;2.30;;;;;15.70;100868.00;;;;10244142;28;20203;-80
2023/08/06 16:56:23;;;;;;;8.82;1.98;;;;;15.80;100861.00;;;;10230575;28;20219;-81
2023/08/06 17:01:24;;;;;;;9.93;2.00;;;;;15.90;100868.00;;;;10244466;28;20211;-80
2023/08/06 17:06:26;;;;;;;5.07;1.58;;;;;15.80;100883.00;;;;10241598;28;20462;-81
2023/08/06 17:11:32;;;;;;;11.32;2.22;;;;;16.30;100893.00;;;;10243300;28;20199;-82
2023/08/06 17:16:33;;;;;;;8.48;2.10;;;;;16.30;100896.00;;;;10260641;28;20307;-81
2023/08/06 17:21:35;;;;;;;7.15;1.70;;;;;16.00;100909.00;;;;10215073;28;20343;-81
2023/08/06 17:26:36;;;;;;;6.32;1.85;;;;;16.00;100918.00;;;;10246355;28;20233;-80
2023/08/06 17:31:38;;;;;;;6.35;2.20;;;;;16.00;100920.00;;;;10247537;28;21230;-80
2023/08/06 17:36:41;;;;;;;8.75;1.90;;;;;15.90;100930.00;;;;10249446;28;20218;-81
2023/08/06 17:41:43;;;;;;;5.20;1.67;;;;;15.90;100941.00;;;;10224956;28;20215;-81
2023/08/06 17:46:47;;;;;;;11.25;1.88;;;;;15.80;100944.00;;;;10235057;28;21362;-83
2023/08/06 17:51:48;;;;;;;7.45;1.80;;;;;15.80;100951.00;;;;10230944;28;20227;-80
2023/08/06 17:56:51;;;;;;;14.57;2.30;;;;;15.80;100958.00;;;;10244887;28;20273;-81
2023/08/06 18:01:52;;;;;;;8.98;2.13;;;;;15.70;100950.00;;;;10232671;28;20223;-82
2023/08/06 18:06:54;;;;;;;7.63;1.88;;;;;15.30;100956.00;;;;10248584;28;20513;-80
2023/08/06 18:11:55;;;;;;;11.88;2.35;;;;;15.10;100954.00;;;;10266437;28;20212;-81
2023/08/06 18:16:57;;;;;;;7.40;1.80;;;;;15.00;100961.00;;;;10254861;28;20942;-82
2023/08/06 18:22:00;;;;;;;10.35;2.10;;;;;15.00;100961.00;;;;10274589;28;20222;-82
2023/08/06 18:27:02;;;;;;;11.38;2.17;;;;;15.00;100966.00;;;;10272333;28;20358;-80
2023/08/06 18:32:04;;;;;;;8.48;1.92;;;;;14.90;100973.00;;;;10241507;28;20664;-81
2023/08/06 18:37:06;;;;;;;7.30;2.05;;;;;14.80;100965.00;;;;10257201;28;20203;-81
2023/08/06 18:42:08;;;;;;;10.18;2.28;;;;;14.70;100970.00;;;;10257373;28;20215;-81
2023/08/06 18:47:09;;;;;;;6.22;1.80;;;;;14.50;100977.00;;;;10259649;28;20231;-81
2023/08/06 18:52:10;;;;;;;12.05;2.45;;;;;14.40;100973.00;;;;10277698;28;20211;-80
2023/08/06 18:57:12;;;;;;;8.40;2.63;;;;;14.30;100988.00;;;;10259894;28;20218;-81
2023/08/06 19:02:13;;;;;;;10.68;2.42;;;;;14.10;100990.00;;;;10259652;28;20479;-81
2023/08/06 19:07:15;;;;;;;8.98;2.70;;;;;14.00;100992.00;;;;10258824;28;20220;-82
2023/08/06 19:12:20;;;;;;;7.97;2.25;;;;;13.90;100988.00;;;;10246109;28;20304;-80
2023/08/06 19:17:22;;;;;;;11.93;2.50;;;;;13.80;101001.00;;;;10278610;28;21288;-80
2023/08/06 19:22:23;;;;;;;12.75;2.92;;;;;13.70;101003.00;;;;10278694;28;20208;-81
2023/08/06 19:27:25;;;;;;;10.57;3.45;;;;;13.60;100995.00;;;;10260396;28;20981;-81
2023/08/06 19:32:26;;;;;;;17.40;3.00;;;;;13.60;100999.00;;;;10260119;28;20215;-81
2023/08/06 19:37:28;;;;;;;8.90;2.33;;;;;13.40;100998.00;;;;10279420;28;20347;-81
2023/08/06 19:42:30;;;;;;;15.70;3.10;;;;;13.40;101003.00;;;;10263540;28;20337;-81
2023/08/06 19:47:31;;;;;;;12.47;2.50;;;;;13.30;101008.00;;;;10246344;28;20235;-82
2023/08/06 19:52:33;;;;;;;9.07;2.40;;;;;13.20;101002.00;;;;10277318;28;20207;-81
2023/08/06 19:57:34;;;;;;;8.67;2.53;;;;;13.10;101003.00;;;;10243613;28;20204;-82
2023/08/06 20:02:36;;;;;;;13.17;2.80;;;;;13.10;101012.00;;;;10262265;28;20219;-80
2023/08/06 20:07:38;;;;;;;9.13;2.40;;;;;13.10;101019.00;;;;10258960;28;20489;-83
2023/08/06 20:12:39;;;;;;;15.10;2.67;;;;;13.00;101014.00;;;;10251715;28;20751;-81
2023/08/06 20:17:40;;;;;;;10.57;2.17;;;;;12.90;101023.00;;;;10262453;28;21823;-81
2023/08/06 20:22:42;;;;;;;8.23;2.20;;;;;12.70;101019.00;;;;10277788;28;20242;-81
2023/08/06 20:27:44;;;;;;;11.17;2.90;;;;;12.70;101023.00;;;;10277526;28;20273;-81
2023/08/06 20:32:46;;;;;;;14.53;2.90;;;;;12.60;101023.00;;;;10260989;28;20211;-81
2023/08/06 20:37:47;;;;;;;6.73;2.50;;;;;12.50;101027.00;;;;10277389;28;20211;-80
2023/08/06 20:42:49;;;;;;;14.10;3.27;;;;;12.40;101027.00;;;;10242712;28;20219;-81
2023/08/06 20:47:50;;;;;;;10.40;3.70;;;;;12.30;101028.00;;;;10277337;28;20342;-81
2023/08/06 20:52:52;;;;;;;9.13;3.43;;;;;12.30;101038.00;;;;10257728;28;21945;-81
2023/08/06 20:57:54;;;;;;;13.87;4.00;;;;;12.20;101038.00;;;;10262576;28;20669;-80
2023/08/06 21:02:55;;;;;;;12.33;3.20;;;;;12.20;101038.00;;;;10255996;28;20903;-81
2023/08/06 21:07:57;;;;;;;7.00;3.17;;;;;12.20;101041.00;;;;10259494;28;20667;-82
2023/08/06 21:12:59;;;;;;;15.67;3.33;;;;;12.20;101040.00;;;;10277163;28;20707;-81
2023/08/06 21:18:00;;;;;;;15.57;3.23;;;;;12.10;101046.00;;;;10274330;28;20211;-81
2023/08/06 21:23:02;;;;;;;9.13;2.90;;;;;12.10;101044.00;;;;10257458;28;20258;-81
2023/08/06 21:28:03;;;;;;;13.33;2.97;;;;;12.10;101048.00;;;;10257449;28;20305;-81
2023/08/06 21:33:05;;;;;;;10.13;2.90;;;;;12.10;101044.00;;;;10257113;28;20517;-82
2023/08/06 21:38:06;;;;;;;11.00;3.40;;;;;12.10;101052.00;;;;10273677;28;21156;-81
2023/08/06 21:43:07;;;;;;;14.03;3.77;;;;;12.10;101058.00;;;;10259197;28;20203;-81
2023/08/06 21:48:09;;;;;;;16.67;3.20;;;;;12.10;101042.00;;;;10275190;28;21641;-81
2023/08/06 21:53:10;;;;;;;13.33;3.20;;;;;12.00;101045.00;;;;10254929;28;20917;-81
2023/08/06 21:58:11;;;;;;;11.87;4.13;;;;;12.00;101045.00;;;;10257666;28;20599;-81
2023/08/06 22:03:13;;;;;;;9.77;3.17;;;;;12.00;101048.00;;;;10273992;28;20207;-81
2023/08/06 22:08:16;;;;;;;9.70;3.20;;;;;11.90;101050.00;;;;10254649;28;20219;-81
2023/08/06 22:13:17;;;;;;;16.03;3.30;;;;;11.90;101059.00;;;;10274362;28;20203;-80
2023/08/06 22:18:19;;;;;;;11.90;3.27;;;;;11.80;101065.00;;;;10253775;28;20250;-80
2023/08/06 22:23:20;;;;;;;13.10;3.50;;;;;11.80;101052.00;;;;10257403;28;20203;-80
2023/08/06 22:28:23;;;;;;;9.33;3.00;;;;;11.80;101059.00;;;;10268963;28;20227;-81
2023/08/06 22:33:29;;;;;;;12.23;2.80;;;;;11.80;101059.00;;;;10254677;28;20207;-81
2023/08/06 22:38:30;;;;;;;13.33;3.80;;;;;11.70;101053.00;;;;10256673;28;20200;-80
2023/08/06 22:43:32;;;;;;;12.17;3.60;;;;;11.70;101047.00;;;;10270098;28;20322;-81
2023/08/06 22:48:33;;;;;;;14.40;3.30;;;;;11.70;101054.00;;;;10254295;28;20219;-81
2023/08/06 22:53:35;;;;;;;8.63;3.40;;;;;11.60;101054.00;;;;10271655;28;20208;-81
2023/08/06 22:58:37;;;;;;;8.30;3.03;;;;;11.60;101054.00;;;;10270586;28;21061;-81
2023/08/06 23:03:38;;;;;;;12.63;3.00;;;;;11.60;101058.00;;;;10260192;28;20214;-81
2023/08/06 23:08:40;;;;;;;10.60;3.33;;;;;11.60;101057.00;;;;10259455;28;20803;-81
2023/08/06 23:13:41;;;;;;;7.63;3.30;;;;;11.60;101074.00;;;;10261086;28;20230;-80
2023/08/06 23:18:43;;;;;;;9.93;2.83;;;;;11.60;101071.00;;;;10278386;28;20215;-81
2023/08/06 23:23:45;;;;;;;6.73;3.03;;;;;11.60;101065.00;;;;10274099;28;21426;-81
2023/08/06 23:28:48;;;;;;;17.23;3.70;;;;;11.50;101059.00;;;;10278101;28;20227;-81
2023/08/06 23:33:50;;;;;;;11.60;3.10;;;;;11.40;101061.00;;;;10259423;28;20224;-82
2023/08/06 23:38:54;;;;;;;14.07;3.10;;;;;11.40;101068.00;;;;10262319;28;20226;-81
2023/08/06 23:43:56;;;;;;;14.37;3.80;;;;;11.40;101073.00;;;;10262633;28;20207;-81
2023/08/06 23:48:57;;;;;;;10.00;3.07;;;;;11.40;101066.00;;;;10229053;28;20350;-81
2023/08/06 23:53:58;;;;;;;10.07;3.33;;;;;11.30;101073.00;;;;10261506;28;20537;-80
2023/08/06 23:59:00;;;;;;;9.47;3.23;;;;;11.40;101075.00;;;;10276755;28;20216;-81
